Flight Track Log - Related Links

Times and Time Zones

All times are in EDT time to prevent confusion due to time zone crossing. See the SWA9013 flight status page for this flight to view local times or setup timezone preferences in your user account.

Time Position Orientation Groundspeed Altitude Reporting Facility
EDT Latitude Longitude Course Direction KTS MPH feet Rate Location/Type
Tue 11:20:06 PM 39.8333 -104.8000 245° Southwest 223 257 9,100  Level Denver TRACON
Tue 11:21:01 PM 39.8000 -104.8833 243° Southwest 288 331 10,800 2,902 Climbing Denver TRACON
Tue 11:22:08 PM 39.7667 -105.0167 252° West 356 410 15,000 3,789 Climbing Denver TRACON
Tue 11:23:14 PM 39.7242 -105.1425 246° West 363 418 19,200 3,496 Climbing Denver Center
Tue 11:24:15 PM 39.6872 -105.2489 246° West 357 411 22,400 3,148 Climbing Denver Center
Tue 11:25:00 PM 39.6061 -105.4334 245° Southwest  Level FlightAware Approximate
Tue 11:25:16 PM 39.6333 -105.3992 245° Southwest 384 442 25,600  Level Denver Center
Tue 11:26:17 PM 39.5844 -105.5322 245° Southwest 404 465 27,700 2,066 Climbing Denver Center
Tue 11:27:18 PM 39.5383 -105.6719 247° West 420 483 29,800 2,262 Climbing Denver Center
Tue 11:28:19 PM 39.4964 -105.8197 250° West 435 501 32,300 2,459 Climbing Denver Center
Tue 11:29:20 PM 39.4581 -105.9661 251° West 435 501 34,800 2,311 Climbing Denver Center
Tue 11:30:21 PM 39.4175 -106.1089 250° West 427 491 37,000 2,115 Climbing Denver Center
Tue 11:31:22 PM 39.3747 -106.2600 250° West 426 490 39,100 1,475 Climbing Denver Center
Tue 11:32:23 PM 39.3372 -106.3911 250° West 413 475 40,000 443 Climbing Denver Center
Tue 11:33:24 PM 39.3003 -106.5211 250° West 407 468 40,000  Level Denver Center
Tue 11:34:25 PM 39.2550 -106.6733 249° West 406 467 40,000  Level Denver Center
Tue 11:35:25 PM 39.1978 -106.7919 238° Southwest 407 468 40,000  Level Denver Center
Tue 11:36:26 PM 39.1133 -106.9214 230° Southwest 416 479 40,000  Level Denver Center
Tue 11:37:27 PM 39.0419 -107.0297 230° Southwest 416 479 40,000  Level Denver Center
Tue 11:38:28 PM 38.9711 -107.1408 231° Southwest 416 479 40,000  Level Denver Center
Tue 11:39:29 PM 38.8883 -107.2694 230° Southwest 416 479 40,000  Level Denver Center
Tue 11:40:30 PM 38.8175 -107.3781 230° Southwest 417 480 40,000  Level Denver Center
Tue 11:41:31 PM 38.7469 -107.4875 230° Southwest 417 480 40,000  Level Denver Center
Tue 11:42:32 PM 38.6631 -107.6158 230° Southwest 417 480 40,000  Level Denver Center
Tue 11:43:45 PM 38.5908 -107.7247 230° Southwest 418 481 40,000  Level Denver Center
Tue 11:44:46 PM 38.4950 -107.8694 230° Southwest 417 480 40,000  Level Denver Center
Tue 11:45:47 PM 38.4247 -107.9775 230° Southwest 417 480 40,000  Level Denver Center
Tue 11:46:48 PM 38.3519 -108.0853 229° Southwest 417 480 40,000  Level Denver Center
Tue 11:47:49 PM 38.2689 -108.2106 230° Southwest 416 479 40,000  Level Denver Center
Tue 11:48:50 PM 38.1981 -108.3156 229° Southwest 413 475 40,000  Level Denver Center
Tue 11:49:51 PM 38.1250 -108.4239 229° Southwest 414 476 40,000  Level Denver Center
Tue 11:50:52 PM 38.0442 -108.5436 229° Southwest 414 476 40,000  Level Denver Center
Tue 11:51:54 PM 37.9719 -108.6494 229° Southwest 414 476 40,000  Level Denver Center
Tue 11:52:55 PM 37.8881 -108.7733 229° Southwest 414 476 40,000  Level Denver Center
Tue 11:53:56 PM 37.8144 -108.8792 229° Southwest 414 476 40,000  Level Denver Center
Tue 11:54:57 PM 37.7419 -108.9861 229° Southwest 416 479 40,000  Level Denver Center
Tue 11:55:58 PM 37.6575 -109.1111 230° Southwest 419 482 40,000  Level Denver Center
Tue 11:56:59 PM 37.5919 -109.2250 234° Southwest 420 483 40,000  Level Denver Center
Tue 11:58:00 PM 37.5253 -109.3617 238° Southwest 415 478 40,000  Level Denver Center
Tue 11:59:01 PM 37.4664 -109.4783 238° Southwest 414 476 40,000  Level Denver Center
Wed 12:00:03 AM 37.4078 -109.5931 237° Southwest 413 475 40,000  Level Denver Center
Wed 12:01:04 AM 37.3397 -109.7292 238° Southwest 412 474 40,000  Level Denver Center
Wed 12:02:05 AM 37.2806 -109.8450 237° Southwest 412 474 40,000  Level Denver Center
Wed 12:03:06 AM 37.2131 -109.9783 238° Southwest 410 472 40,000  Level Denver Center
Wed 12:04:07 AM 37.1539 -110.0947 237° Southwest 411 473 40,000  Level Denver Center
Wed 12:05:08 AM 37.0975 -110.2047 237° Southwest 411 473 40,000  Level Denver Center
Wed 12:06:09 AM 37.0358 -110.3244 237° Southwest 410 472 40,000  Level Denver Center
Wed 12:07:10 AM 36.9747 -110.4433 237° Southwest 409 471 40,000  Level Denver Center
Wed 12:08:11 AM 36.9008 -110.5878 237° Southwest 409 471 40,000  Level Denver Center
Wed 12:09:12 AM 36.8383 -110.7078 237° Southwest 411 473 40,000  Level Denver Center
Wed 12:10:13 AM 36.7747 -110.8275 236° Southwest 412 474 40,000  Level Denver Center
Wed 12:11:14 AM 36.7136 -110.9478 238° Southwest 412 474 40,000  Level Denver Center
Wed 12:12:15 AM 36.6511 -111.0669 237° Southwest 412 474 40,000  Level Denver Center
Wed 12:13:16 AM 36.5872 -111.1861 236° Southwest 412 474 40,000  Level Denver Center
Wed 12:14:17 AM 36.5242 -111.3056 237° Southwest 412 474 40,000  Level Denver Center
Wed 12:15:18 AM 36.4622 -111.4225 237° Southwest 411 473 40,000  Level Denver Center
Wed 12:16:18 AM 36.3992 -111.5397 236° Southwest 410 472 40,000  Level Denver Center
Wed 12:17:19 AM 36.3367 -111.6575 237° Southwest 410 472 40,000  Level Denver Center
Wed 12:17:56 AM 36.2975 -111.7289 236° Southwest 408 470 40,000  Level Los Angeles Center
Wed 12:18:58 AM 36.2339 -111.8467 236° Southwest 410 472 40,000  Level Los Angeles Center
Wed 12:19:59 AM 36.1631 -111.9806 237° Southwest 410 472 40,000  Level Los Angeles Center
Wed 12:21:00 AM 36.1000 -112.0958 236° Southwest 410 472 40,000  Level Los Angeles Center
Wed 12:22:02 AM 36.0381 -112.2117 237° Southwest 410 472 40,000  Level Los Angeles Center
Wed 12:23:03 AM 35.9692 -112.3364 236° Southwest 409 471 40,000  Level Los Angeles Center
Wed 12:24:04 AM 35.9128 -112.4411 236° Southwest 406 467 40,000  Level Los Angeles Center
Wed 12:25:06 AM 35.8489 -112.5558 236° Southwest 406 467 40,000  Level Los Angeles Center
Wed 12:26:07 AM 35.7864 -112.6697 236° Southwest 406 467 40,000  Level Los Angeles Center
Wed 12:27:08 AM 35.7111 -112.8078 236° Southwest 406 467 40,000  Level Los Angeles Center
Wed 12:28:10 AM 35.6506 -112.9153 235° Southwest 409 471 40,000  Level Los Angeles Center
Wed 12:29:11 AM 35.5850 -113.0344 236° Southwest 409 471 40,000  Level Los Angeles Center
Wed 12:30:12 AM 35.5194 -113.1506 235° Southwest 410 472 40,000  Level Los Angeles Center
Wed 12:31:14 AM 35.4558 -113.2658 236° Southwest 410 472 40,000  Level Los Angeles Center
Wed 12:32:15 AM 35.3792 -113.4003 235° Southwest 411 473 40,000  Level Los Angeles Center
Wed 12:33:16 AM 35.3144 -113.5144 235° Southwest 411 473 40,000  Level Los Angeles Center
Wed 12:34:17 AM 35.2508 -113.6294 236° Southwest 412 474 40,000  Level Los Angeles Center
Wed 12:35:19 AM 35.1869 -113.7422 235° Southwest 410 472 40,000  Level Los Angeles Center
Wed 12:36:20 AM 35.1214 -113.8553 235° Southwest 410 472 40,000  Level Los Angeles Center
Wed 12:37:21 AM 35.0519 -113.9783 235° Southwest 410 472 40,000  Level Los Angeles Center
Wed 12:38:23 AM 34.9867 -114.0917 235° Southwest 409 471 40,000  Level Los Angeles Center
Wed 12:39:24 AM 34.9214 -114.2047 235° Southwest 409 471 40,000  Level Los Angeles Center
Wed 12:40:25 AM 34.8564 -114.3194 235° Southwest 409 471 40,000  Level Los Angeles Center
Wed 12:41:26 AM 34.7908 -114.4325 235° Southwest 409 471 40,000  Level Los Angeles Center
Wed 12:42:28 AM 34.7461 -114.5575 247° West 404 465 40,000  Level Los Angeles Center
Wed 12:43:29 AM 34.7014 -114.6828 247° West 404 465 40,000  Level Los Angeles Center
Wed 12:44:30 AM 34.6511 -114.8211 246° West 404 465 40,000  Level Los Angeles Center
Wed 12:45:31 AM 34.6058 -114.9439 246° West 404 465 40,000  Level Los Angeles Center
Wed 12:46:32 AM 34.5606 -115.0681 246° West 403 464 40,000  Level Los Angeles Center
Wed 12:47:34 AM 34.5158 -115.1911 246° West 403 464 40,000  Level Los Angeles Center
Wed 12:48:35 AM 34.4714 -115.3125 246° West 401 461 40,000  Level Los Angeles Center
Wed 12:49:36 AM 34.4256 -115.4344 246° West 399 459 40,000 -738 Level Los Angeles Center
Wed 12:50:37 AM 34.3719 -115.5806 246° West 399 459 38,500 -1,721 Descending Los Angeles Center
Wed 12:51:38 AM 34.3267 -115.6978 245° Southwest 392 451 36,500 -2,049 Descending Los Angeles Center
Wed 12:52:40 AM 34.2811 -115.8214 246° West 398 458 34,300 -1,415 Descending Los Angeles Center
Wed 12:53:41 AM 34.2394 -115.9342 246° West 412 474 33,600 -934 Descending Los Angeles Center
Wed 12:54:42 AM 34.1819 -116.0853 245° Southwest 415 478 32,400 -2,213 Descending Los Angeles Center
Wed 12:55:43 AM 34.1339 -116.2128 246° West 415 478 29,100 -2,878 Descending Los Angeles Center
Wed 12:56:45 AM 34.0906 -116.3247 245° Southwest 412 474 26,500 -2,683 Descending Los Angeles Center
Wed 12:57:46 AM 34.0444 -116.4478 246° West 406 467 23,600 -3,098 Descending Los Angeles Center
Wed 12:58:47 AM 33.9894 -116.5900 245° Southwest 398 458 20,200 -2,927 Descending Los Angeles Center
Wed 12:59:49 AM 33.9458 -116.7022 245° Southwest 379 436 17,600 -2,683 Descending Los Angeles Center
Wed 01:00:50 AM 33.9039 -116.8114 245° Southwest 365 420 14,700 -1,982 Descending Los Angeles Center
Wed 01:01:38 AM 33.8833 -116.9000 254° West 341 392 14,000 -389 Descending Southern California TRACON
Wed 01:02:38 AM 33.8667 -117.0167 260° West 342 394 14,000 -300 Level Southern California TRACON
Wed 01:03:38 AM 33.8333 -117.1333 251° West 344 396 13,400 -1,438 Descending Southern California TRACON
Wed 01:04:39 AM 33.8167 -117.2333 259° West 343 395 11,100 -1,558 Descending Southern California TRACON
Wed 01:06:39 AM 33.8000 -117.4333 264° West 259 298 8,700 -1,028 Descending Southern California TRACON
Wed 01:07:40 AM 33.7833 -117.5167 256° West 250 288 8,000 -843 Descending Southern California TRACON
Wed 01:08:40 AM 33.7833 -117.6000 270° West 248 285 7,000 -700 Descending Southern California TRACON
Wed 01:09:40 AM 33.8000 -117.6667 287° West 236 272 6,600 -545 Descending Southern California TRACON
Wed 01:10:41 AM 33.8000 -117.7333 270° West 194 223 5,900 -1,041 Descending Southern California TRACON
Wed 01:11:41 AM 33.8000 -117.7833 270° West 150 173 4,500 -1,700 Descending Southern California TRACON
Wed 01:12:41 AM 33.7667 -117.8167 220° Southwest 149 171 2,500 -1,650 Descending Southern California TRACON
Wed 01:13:41 AM 33.7333 -117.8333 203° Southwest 140 161 1,200 -942 Descending Southern California TRACON
Wed 01:14:42 AM 33.7000 -117.8500 203° Southwest 131 151 600 -590 Descending Southern California TRACON
Wed 01:18:00 AM 33.6757 -117.8682 132° Southeast  Level Estimated

Login

Don't have an account? Register now (free) for customized features, flight alerts, and more!